EDT,Max TemperatureF,Mean TemperatureF,Min TemperatureF,Max Dew PointF,MeanDew PointF,Min DewpointF,Max Humidity, Mean Humidity, Min Humidity, Max Sea Level PressureIn, Mean Sea Level PressureIn, Min Sea Level PressureIn, Max VisibilityMiles, Mean VisibilityMiles, Min VisibilityMiles, Max Wind SpeedMPH, Mean Wind SpeedMPH, Max Gust SpeedMPH,PrecipitationIn, CloudCover, Events, WindDirDegrees
2012-10-1,64,51,38,51,44,32,93,71,48,29.95,29.90,29.85,10,8,3,8,1,,0.00,1,Rain,78
2012-10-2,65,59,53,59,54,50,92,84,73,29.91,29.85,29.80,10,7,2,10,4,17,0.00,8,Rain,52
2012-10-3,65,62,59,59,56,53,93,81,65,30.09,30.01,29.89,10,7,0,12,2,17,0.00,8,Fog,201
2012-10-4,76,66,56,54,51,49,80,62,38,30.13,30.09,30.03,10,10,10,13,6,18,0.00,2,,208
2012-10-5,69,56,43,55,48,40,90,75,57,30.10,30.05,30.00,10,10,4,9,6,16,0.00,7,Rain,256
2012-10-6,50,44,38,42,36,32,91,73,51,30.14,30.05,29.98,10,10,7,15,6,21,0.00,6,,262
2012-10-7,49,45,41,39,37,34,88,75,57,30.17,30.12,30.09,10,10,10,13,2,20,0.00,8,,267
2012-10-8,55,43,31,37,31,25,94,68,33,30.23,30.18,30.13,10,9,5,10,2,16,0.00,1,,215
2012-10-9,62,49,36,38,35,31,89,60,34,30.14,30.03,29.88,10,9,5,14,5,24,0.00,0,,194
2012-10-10,52,42,33,42,36,27,90,66,45,30.19,29.98,29.83,10,10,7,18,9,28,0.00,6,Rain,261
2012-10-11,61,46,30,35,30,28,91,58,29,30.22,30.15,30.07,10,10,10,21,5,28,0.00,0,,223
2012-10-12,52,42,32,40,32,25,92,64,34,30.43,30.36,30.16,10,10,10,10,6,18,0.00,2,,6
2012-10-13,63,46,31,57,39,29,92,74,54,30.40,30.18,29.93,10,9,3,13,4,20,0.00,4,Rain,139
2012-10-14,71,64,57,61,58,50,82,73,62,29.92,29.72,29.50,10,10,7,23,11,40,0.00,5,Rain,201
2012-10-15,56,52,47,50,43,39,88,73,62,29.95,29.80,29.59,10,10,5,21,11,32,0.00,8,,279
2012-10-16,61,52,44,40,37,34,76,58,37,30.00,29.91,29.76,10,10,10,9,2,9,0.00,4,Rain,192
2012-10-17,75,64,54,56,46,41,91,57,31,29.80,29.69,29.56,10,10,7,16,8,26,0.00,5,Rain,182
2012-10-18,63,57,51,54,42,31,92,59,33,29.68,29.55,29.41,10,10,3,18,7,32,0.00,5,Rain,190
2012-10-19,55,50,45,45,41,34,92,72,54,29.66,29.60,29.56,10,10,5,13,4,17,0.00,7,Rain,174
2012-10-20,56,50,45,44,43,42,91,79,60,29.93,29.74,29.60,10,10,7,17,7,23,0.00,7,,243
2012-10-21,62,52,43,43,41,38,88,69,41,30.12,30.06,29.94,10,9,2,10,3,,0.00,2,,238
2012-10-22,73,57,41,57,48,39,93,73,47,30.10,30.05,29.97,10,7,2,7,2,,0.00,2,Rain,174
2012-10-23,72,67,62,58,56,53,84,73,59,30.02,29.97,29.93,10,10,7,10,5,17,0.00,6,Rain,217
2012-10-24,78,70,61,58,56,52,91,66,48,30.04,30.01,29.98,10,10,7,12,5,18,0.00,3,Rain,199
2012-10-25,78,68,57,54,51,49,77,56,37,30.02,29.95,29.88,10,10,7,18,7,26,0.00,0,,190
2012-10-26,68,57,46,54,41,34,85,68,55,30.23,30.12,29.88,10,10,5,15,8,25,0.00,7,Rain,328
2012-10-27,54,48,41,37,33,30,76,59,41,30.20,30.17,30.12,10,10,10,13,7,20,0.00,5,,4
2012-10-28,50,44,39,35,30,27,74,60,46,30.18,30.13,30.09,10,10,10,20,9,30,0.00,5,,6
2012-10-29,43,42,40,31,28,24,64,59,48,30.09,29.95,29.68,10,10,10,24,13,41,0.00,8,,344
2012-10-30,42,38,35,36,33,27,87,80,61,29.68,29.49,29.43,10,9,4,24,18,37,0.00,8,Rain-Snow,331
2012-10-31,43,40,37,38,35,33,90,83,76,29.69,29.60,29.52,10,8,2,13,9,23,0.00,8,Rain,300